sensor_id;sensor_type;location;lat;lon;timestamp;P1;durP1;ratioP1;P2;durP2;ratioP2
5821;SDS011;2937;48.562;8.022;2022-07-11T00:00:57;7.37;;;5.57;;
5821;SDS011;2937;48.562;8.022;2022-07-11T00:05:50;8.00;;;6.13;;
5821;SDS011;2937;48.562;8.022;2022-07-11T00:10:42;7.93;;;6.40;;
5821;SDS011;2937;48.562;8.022;2022-07-11T00:15:37;7.80;;;6.17;;
5821;SDS011;2937;48.562;8.022;2022-07-11T00:20:31;10.47;;;6.40;;
5821;SDS011;2937;48.562;8.022;2022-07-11T00:25:24;9.17;;;6.00;;
5821;SDS011;2937;48.562;8.022;2022-07-11T00:30:17;9.30;;;6.60;;
5821;SDS011;2937;48.562;8.022;2022-07-11T00:35:09;6.60;;;5.90;;
5821;SDS011;2937;48.562;8.022;2022-07-11T00:40:04;10.50;;;6.93;;
5821;SDS011;2937;48.562;8.022;2022-07-11T00:44:57;9.87;;;6.80;;
5821;SDS011;2937;48.562;8.022;2022-07-11T00:49:50;9.30;;;6.23;;
5821;SDS011;2937;48.562;8.022;2022-07-11T00:54:42;8.47;;;6.43;;
5821;SDS011;2937;48.562;8.022;2022-07-11T00:59:37;8.13;;;6.37;;
5821;SDS011;2937;48.562;8.022;2022-07-11T01:04:29;11.80;;;8.07;;
5821;SDS011;2937;48.562;8.022;2022-07-11T01:09:22;9.63;;;7.70;;
5821;SDS011;2937;48.562;8.022;2022-07-11T01:14:15;7.33;;;6.10;;
5821;SDS011;2937;48.562;8.022;2022-07-11T01:19:09;12.17;;;8.27;;
5821;SDS011;2937;48.562;8.022;2022-07-11T01:24:03;10.30;;;8.07;;
5821;SDS011;2937;48.562;8.022;2022-07-11T01:28:58;11.63;;;7.70;;
5821;SDS011;2937;48.562;8.022;2022-07-11T01:33:56;10.10;;;7.50;;
5821;SDS011;2937;48.562;8.022;2022-07-11T01:38:49;9.30;;;6.60;;
5821;SDS011;2937;48.562;8.022;2022-07-11T01:43:43;7.43;;;6.10;;
5821;SDS011;2937;48.562;8.022;2022-07-11T01:48:36;8.30;;;5.10;;
5821;SDS011;2937;48.562;8.022;2022-07-11T01:53:29;7.00;;;5.10;;
5821;SDS011;2937;48.562;8.022;2022-07-11T01:58:21;6.00;;;4.60;;
5821;SDS011;2937;48.562;8.022;2022-07-11T02:03:15;6.73;;;4.80;;
5821;SDS011;2937;48.562;8.022;2022-07-11T02:08:08;6.90;;;5.00;;
5821;SDS011;2937;48.562;8.022;2022-07-11T02:13:04;6.13;;;4.40;;
5821;SDS011;2937;48.562;8.022;2022-07-11T02:17:56;6.90;;;4.63;;
5821;SDS011;2937;48.562;8.022;2022-07-11T02:22:50;6.60;;;4.73;;
5821;SDS011;2937;48.562;8.022;2022-07-11T02:27:43;6.30;;;4.50;;
5821;SDS011;2937;48.562;8.022;2022-07-11T02:32:36;5.90;;;5.03;;
5821;SDS011;2937;48.562;8.022;2022-07-11T02:37:28;6.87;;;5.33;;
5821;SDS011;2937;48.562;8.022;2022-07-11T02:42:22;9.80;;;6.20;;
5821;SDS011;2937;48.562;8.022;2022-07-11T02:47:15;6.40;;;4.83;;
5821;SDS011;2937;48.562;8.022;2022-07-11T02:52:07;9.27;;;5.70;;
5821;SDS011;2937;48.562;8.022;2022-07-11T02:57:00;8.00;;;5.40;;
5821;SDS011;2937;48.562;8.022;2022-07-11T03:01:54;5.90;;;4.77;;
5821;SDS011;2937;48.562;8.022;2022-07-11T03:06:47;6.73;;;4.90;;
5821;SDS011;2937;48.562;8.022;2022-07-11T03:11:39;8.10;;;4.80;;
5821;SDS011;2937;48.562;8.022;2022-07-11T03:16:32;9.67;;;4.80;;
5821;SDS011;2937;48.562;8.022;2022-07-11T03:21:26;8.00;;;5.47;;
5821;SDS011;2937;48.562;8.022;2022-07-11T03:26:19;6.57;;;5.43;;
5821;SDS011;2937;48.562;8.022;2022-07-11T03:31:11;9.53;;;5.27;;
5821;SDS011;2937;48.562;8.022;2022-07-11T03:36:05;7.37;;;5.90;;
5821;SDS011;2937;48.562;8.022;2022-07-11T03:40:59;8.37;;;6.00;;
5821;SDS011;2937;48.562;8.022;2022-07-11T03:45:52;6.80;;;5.40;;
5821;SDS011;2937;48.562;8.022;2022-07-11T03:50:44;7.93;;;6.20;;
5821;SDS011;2937;48.562;8.022;2022-07-11T03:55:38;9.13;;;5.37;;
5821;SDS011;2937;48.562;8.022;2022-07-11T04:00:32;6.70;;;4.90;;
5821;SDS011;2937;48.562;8.022;2022-07-11T04:05:25;7.50;;;5.60;;
5821;SDS011;2937;48.562;8.022;2022-07-11T04:10:18;7.17;;;5.90;;
5821;SDS011;2937;48.562;8.022;2022-07-11T04:15:11;6.83;;;5.47;;
5821;SDS011;2937;48.562;8.022;2022-07-11T04:20:05;10.80;;;6.13;;
5821;SDS011;2937;48.562;8.022;2022-07-11T04:24:58;8.87;;;5.70;;
5821;SDS011;2937;48.562;8.022;2022-07-11T04:29:50;10.57;;;6.87;;
5821;SDS011;2937;48.562;8.022;2022-07-11T04:34:43;7.93;;;6.17;;
5821;SDS011;2937;48.562;8.022;2022-07-11T04:39:37;14.00;;;6.70;;
5821;SDS011;2937;48.562;8.022;2022-07-11T04:44:30;10.03;;;6.57;;
5821;SDS011;2937;48.562;8.022;2022-07-11T04:49:22;8.37;;;6.40;;
5821;SDS011;2937;48.562;8.022;2022-07-11T04:54:15;13.37;;;6.83;;
5821;SDS011;2937;48.562;8.022;2022-07-11T04:59:09;11.90;;;7.00;;
5821;SDS011;2937;48.562;8.022;2022-07-11T05:04:01;8.97;;;5.70;;
5821;SDS011;2937;48.562;8.022;2022-07-11T05:08:54;8.90;;;5.87;;
5821;SDS011;2937;48.562;8.022;2022-07-11T05:13:47;11.23;;;5.90;;
5821;SDS011;2937;48.562;8.022;2022-07-11T05:18:41;7.00;;;5.67;;
5821;SDS011;2937;48.562;8.022;2022-07-11T05:23:34;10.93;;;6.07;;
5821;SDS011;2937;48.562;8.022;2022-07-11T05:28:26;8.10;;;6.10;;
5821;SDS011;2937;48.562;8.022;2022-07-11T05:33:19;9.33;;;5.90;;
5821;SDS011;2937;48.562;8.022;2022-07-11T05:38:13;6.93;;;5.00;;
5821;SDS011;2937;48.562;8.022;2022-07-11T05:43:06;8.67;;;5.83;;
5821;SDS011;2937;48.562;8.022;2022-07-11T05:47:59;5.90;;;4.60;;
5821;SDS011;2937;48.562;8.022;2022-07-11T05:52:52;5.80;;;4.90;;
5821;SDS011;2937;48.562;8.022;2022-07-11T05:57:46;7.50;;;4.80;;
5821;SDS011;2937;48.562;8.022;2022-07-11T06:02:38;7.90;;;5.17;;
5821;SDS011;2937;48.562;8.022;2022-07-11T06:07:31;7.23;;;4.93;;
5821;SDS011;2937;48.562;8.022;2022-07-11T06:12:46;5.63;;;4.70;;
5821;SDS011;2937;48.562;8.022;2022-07-11T06:17:39;6.80;;;5.43;;
5821;SDS011;2937;48.562;8.022;2022-07-11T06:22:31;6.13;;;5.10;;
5821;SDS011;2937;48.562;8.022;2022-07-11T06:27:24;5.83;;;4.80;;
5821;SDS011;2937;48.562;8.022;2022-07-11T06:32:18;6.60;;;4.57;;
5821;SDS011;2937;48.562;8.022;2022-07-11T06:37:11;5.93;;;5.03;;
5821;SDS011;2937;48.562;8.022;2022-07-11T06:42:03;5.80;;;4.87;;
5821;SDS011;2937;48.562;8.022;2022-07-11T06:46:56;6.67;;;5.30;;
5821;SDS011;2937;48.562;8.022;2022-07-11T06:51:50;6.53;;;5.13;;
5821;SDS011;2937;48.562;8.022;2022-07-11T06:56:43;5.83;;;4.43;;
5821;SDS011;2937;48.562;8.022;2022-07-11T07:01:36;5.77;;;4.50;;
5821;SDS011;2937;48.562;8.022;2022-07-11T07:06:29;5.83;;;4.90;;
5821;SDS011;2937;48.562;8.022;2022-07-11T07:11:23;6.03;;;5.13;;
5821;SDS011;2937;48.562;8.022;2022-07-11T07:16:16;7.87;;;5.40;;
5821;SDS011;2937;48.562;8.022;2022-07-11T07:21:08;7.00;;;5.17;;
5821;SDS011;2937;48.562;8.022;2022-07-11T07:26:01;8.20;;;5.40;;
5821;SDS011;2937;48.562;8.022;2022-07-11T07:30:55;6.47;;;4.90;;
5821;SDS011;2937;48.562;8.022;2022-07-11T07:35:48;6.40;;;5.00;;
5821;SDS011;2937;48.562;8.022;2022-07-11T07:40:40;5.80;;;5.13;;
5821;SDS011;2937;48.562;8.022;2022-07-11T07:45:33;5.30;;;4.80;;
5821;SDS011;2937;48.562;8.022;2022-07-11T07:50:27;4.90;;;4.23;;
5821;SDS011;2937;48.562;8.022;2022-07-11T07:55:19;8.63;;;4.40;;
5821;SDS011;2937;48.562;8.022;2022-07-11T08:00:12;5.77;;;3.93;;
5821;SDS011;2937;48.562;8.022;2022-07-11T08:05:30;9.40;;;4.23;;
5821;SDS011;2937;48.562;8.022;2022-07-11T08:10:22;3.70;;;3.40;;
5821;SDS011;2937;48.562;8.022;2022-07-11T08:15:15;3.77;;;3.07;;
5821;SDS011;2937;48.562;8.022;2022-07-11T08:20:08;4.43;;;2.87;;
5821;SDS011;2937;48.562;8.022;2022-07-11T08:25:02;3.23;;;2.67;;
5821;SDS011;2937;48.562;8.022;2022-07-11T08:29:55;2.70;;;2.20;;
5821;SDS011;2937;48.562;8.022;2022-07-11T08:34:47;3.23;;;2.37;;
5821;SDS011;2937;48.562;8.022;2022-07-11T08:39:40;4.30;;;2.47;;
5821;SDS011;2937;48.562;8.022;2022-07-11T08:44:39;3.07;;;2.60;;
5821;SDS011;2937;48.562;8.022;2022-07-11T08:49:32;3.23;;;2.60;;
5821;SDS011;2937;48.562;8.022;2022-07-11T08:54:25;3.37;;;2.40;;
5821;SDS011;2937;48.562;8.022;2022-07-11T08:59:17;2.80;;;1.97;;
5821;SDS011;2937;48.562;8.022;2022-07-11T09:04:11;3.30;;;2.20;;
5821;SDS011;2937;48.562;8.022;2022-07-11T09:09:05;3.03;;;2.10;;
5821;SDS011;2937;48.562;8.022;2022-07-11T09:13:57;2.80;;;2.10;;
5821;SDS011;2937;48.562;8.022;2022-07-11T09:18:50;2.70;;;2.07;;
5821;SDS011;2937;48.562;8.022;2022-07-11T09:23:44;2.53;;;2.10;;
5821;SDS011;2937;48.562;8.022;2022-07-11T09:28:58;2.97;;;2.10;;
5821;SDS011;2937;48.562;8.022;2022-07-11T09:33:57;2.90;;;2.33;;
5821;SDS011;2937;48.562;8.022;2022-07-11T09:38:57;4.40;;;2.20;;
5821;SDS011;2937;48.562;8.022;2022-07-11T09:43:50;2.77;;;2.00;;
5821;SDS011;2937;48.562;8.022;2022-07-11T09:48:43;2.73;;;2.30;;
5821;SDS011;2937;48.562;8.022;2022-07-11T09:53:36;2.80;;;2.10;;
5821;SDS011;2937;48.562;8.022;2022-07-11T09:58:45;2.47;;;2.07;;
5821;SDS011;2937;48.562;8.022;2022-07-11T10:03:50;4.17;;;2.17;;
5821;SDS011;2937;48.562;8.022;2022-07-11T10:08:49;3.83;;;2.00;;
5821;SDS011;2937;48.562;8.022;2022-07-11T10:13:43;2.40;;;2.20;;
5821;SDS011;2937;48.562;8.022;2022-07-11T10:18:39;3.40;;;2.20;;
5821;SDS011;2937;48.562;8.022;2022-07-11T10:23:34;3.70;;;2.33;;
5821;SDS011;2937;48.562;8.022;2022-07-11T10:28:30;2.50;;;1.93;;
5821;SDS011;2937;48.562;8.022;2022-07-11T10:33:25;3.20;;;2.40;;
5821;SDS011;2937;48.562;8.022;2022-07-11T10:38:19;5.60;;;2.30;;
5821;SDS011;2937;48.562;8.022;2022-07-11T10:43:13;2.87;;;2.57;;
5821;SDS011;2937;48.562;8.022;2022-07-11T10:48:09;3.23;;;2.50;;
5821;SDS011;2937;48.562;8.022;2022-07-11T10:53:05;2.83;;;2.30;;
5821;SDS011;2937;48.562;8.022;2022-07-11T10:58:02;3.97;;;2.60;;
5821;SDS011;2937;48.562;8.022;2022-07-11T11:03:00;4.23;;;3.07;;
5821;SDS011;2937;48.562;8.022;2022-07-11T11:07:53;4.70;;;2.70;;
5821;SDS011;2937;48.562;8.022;2022-07-11T11:17:59;3.73;;;2.60;;
5821;SDS011;2937;48.562;8.022;2022-07-11T11:23:11;7.27;;;3.07;;
5821;SDS011;2937;48.562;8.022;2022-07-11T11:28:04;4.83;;;2.63;;
5821;SDS011;2937;48.562;8.022;2022-07-11T11:32:58;3.07;;;2.77;;
5821;SDS011;2937;48.562;8.022;2022-07-11T11:37:51;3.70;;;3.00;;
5821;SDS011;2937;48.562;8.022;2022-07-11T11:42:43;7.17;;;3.03;;
5821;SDS011;2937;48.562;8.022;2022-07-11T11:47:45;3.70;;;3.00;;
5821;SDS011;2937;48.562;8.022;2022-07-11T11:52:41;4.00;;;2.80;;
5821;SDS011;2937;48.562;8.022;2022-07-11T11:57:33;4.80;;;3.23;;
5821;SDS011;2937;48.562;8.022;2022-07-11T12:02:27;4.57;;;3.57;;
5821;SDS011;2937;48.562;8.022;2022-07-11T12:07:24;4.80;;;3.20;;
5821;SDS011;2937;48.562;8.022;2022-07-11T12:12:19;4.30;;;2.97;;
5821;SDS011;2937;48.562;8.022;2022-07-11T12:17:29;3.67;;;3.10;;
5821;SDS011;2937;48.562;8.022;2022-07-11T12:22:22;3.20;;;2.80;;
5821;SDS011;2937;48.562;8.022;2022-07-11T12:27:19;3.50;;;3.03;;
5821;SDS011;2937;48.562;8.022;2022-07-11T12:32:12;5.23;;;3.27;;
5821;SDS011;2937;48.562;8.022;2022-07-11T12:37:06;6.63;;;3.53;;
5821;SDS011;2937;48.562;8.022;2022-07-11T12:41:58;4.07;;;3.20;;
5821;SDS011;2937;48.562;8.022;2022-07-11T12:46:52;6.97;;;3.50;;
5821;SDS011;2937;48.562;8.022;2022-07-11T12:51:46;3.53;;;3.03;;
5821;SDS011;2937;48.562;8.022;2022-07-11T12:56:38;7.20;;;3.37;;
5821;SDS011;2937;48.562;8.022;2022-07-11T13:01:31;4.13;;;3.07;;
5821;SDS011;2937;48.562;8.022;2022-07-11T13:06:26;4.20;;;3.23;;
5821;SDS011;2937;48.562;8.022;2022-07-11T13:11:35;3.50;;;3.20;;
5821;SDS011;2937;48.562;8.022;2022-07-11T13:16:28;4.00;;;3.13;;
5821;SDS011;2937;48.562;8.022;2022-07-11T13:21:21;5.37;;;3.20;;
5821;SDS011;2937;48.562;8.022;2022-07-11T13:26:15;3.40;;;3.10;;
5821;SDS011;2937;48.562;8.022;2022-07-11T13:31:08;3.00;;;2.70;;
5821;SDS011;2937;48.562;8.022;2022-07-11T13:36:04;4.03;;;3.37;;
5821;SDS011;2937;48.562;8.022;2022-07-11T13:40:58;4.90;;;3.10;;
5821;SDS011;2937;48.562;8.022;2022-07-11T13:46:03;3.80;;;3.10;;
5821;SDS011;2937;48.562;8.022;2022-07-11T13:50:56;3.50;;;3.00;;
5821;SDS011;2937;48.562;8.022;2022-07-11T13:55:48;3.30;;;2.83;;
5821;SDS011;2937;48.562;8.022;2022-07-11T14:00:41;4.10;;;3.00;;
5821;SDS011;2937;48.562;8.022;2022-07-11T14:05:35;4.50;;;3.47;;
5821;SDS011;2937;48.562;8.022;2022-07-11T14:10:27;3.33;;;2.97;;
5821;SDS011;2937;48.562;8.022;2022-07-11T14:15:20;4.60;;;3.10;;
5821;SDS011;2937;48.562;8.022;2022-07-11T14:20:12;4.13;;;3.20;;
5821;SDS011;2937;48.562;8.022;2022-07-11T14:25:07;6.23;;;3.10;;
5821;SDS011;2937;48.562;8.022;2022-07-11T14:30:01;5.37;;;2.90;;
5821;SDS011;2937;48.562;8.022;2022-07-11T14:34:53;3.70;;;2.90;;
5821;SDS011;2937;48.562;8.022;2022-07-11T14:39:46;4.77;;;2.90;;
5821;SDS011;2937;48.562;8.022;2022-07-11T14:44:40;3.80;;;2.97;;
5821;SDS011;2937;48.562;8.022;2022-07-11T14:49:33;3.17;;;2.70;;
5821;SDS011;2937;48.562;8.022;2022-07-11T14:54:26;5.13;;;2.90;;
5821;SDS011;2937;48.562;8.022;2022-07-11T14:59:18;3.20;;;2.90;;
5821;SDS011;2937;48.562;8.022;2022-07-11T15:04:12;4.60;;;2.77;;
5821;SDS011;2937;48.562;8.022;2022-07-11T15:09:08;3.50;;;2.73;;
5821;SDS011;2937;48.562;8.022;2022-07-11T15:14:23;7.03;;;2.87;;
5821;SDS011;2937;48.562;8.022;2022-07-11T15:19:17;6.30;;;3.10;;
5821;SDS011;2937;48.562;8.022;2022-07-11T15:24:10;3.20;;;2.90;;
5821;SDS011;2937;48.562;8.022;2022-07-11T15:29:02;3.27;;;2.50;;
5821;SDS011;2937;48.562;8.022;2022-07-11T15:33:55;3.97;;;2.80;;
5821;SDS011;2937;48.562;8.022;2022-07-11T15:38:49;4.90;;;2.47;;
5821;SDS011;2937;48.562;8.022;2022-07-11T15:43:42;4.10;;;2.43;;
5821;SDS011;2937;48.562;8.022;2022-07-11T15:48:35;5.43;;;2.70;;
5821;SDS011;2937;48.562;8.022;2022-07-11T15:53:28;4.73;;;2.57;;
5821;SDS011;2937;48.562;8.022;2022-07-11T15:58:22;4.80;;;2.60;;
5821;SDS011;2937;48.562;8.022;2022-07-11T16:03:17;3.60;;;2.80;;
5821;SDS011;2937;48.562;8.022;2022-07-11T16:08:10;3.70;;;2.47;;
5821;SDS011;2937;48.562;8.022;2022-07-11T16:13:03;5.07;;;2.60;;
5821;SDS011;2937;48.562;8.022;2022-07-11T16:17:57;3.70;;;2.60;;
5821;SDS011;2937;48.562;8.022;2022-07-11T16:22:51;2.87;;;2.40;;
5821;SDS011;2937;48.562;8.022;2022-07-11T16:27:43;3.63;;;2.60;;
5821;SDS011;2937;48.562;8.022;2022-07-11T16:32:36;4.60;;;2.97;;
5821;SDS011;2937;48.562;8.022;2022-07-11T16:37:30;5.20;;;2.70;;
5821;SDS011;2937;48.562;8.022;2022-07-11T16:42:23;4.27;;;2.97;;
5821;SDS011;2937;48.562;8.022;2022-07-11T16:47:33;4.30;;;3.00;;
5821;SDS011;2937;48.562;8.022;2022-07-11T16:52:26;3.77;;;3.10;;
5821;SDS011;2937;48.562;8.022;2022-07-11T16:57:20;7.20;;;3.40;;
5821;SDS011;2937;48.562;8.022;2022-07-11T17:02:13;3.97;;;3.40;;
5821;SDS011;2937;48.562;8.022;2022-07-11T17:07:06;3.77;;;3.37;;
5821;SDS011;2937;48.562;8.022;2022-07-11T17:11:58;4.70;;;3.83;;
5821;SDS011;2937;48.562;8.022;2022-07-11T17:16:52;5.03;;;3.73;;
5821;SDS011;2937;48.562;8.022;2022-07-11T17:21:45;6.47;;;3.93;;
5821;SDS011;2937;48.562;8.022;2022-07-11T17:26:38;4.30;;;3.70;;
5821;SDS011;2937;48.562;8.022;2022-07-11T17:31:37;7.53;;;4.33;;
5821;SDS011;2937;48.562;8.022;2022-07-11T17:36:32;5.10;;;4.30;;
5821;SDS011;2937;48.562;8.022;2022-07-11T17:41:25;4.90;;;4.40;;
5821;SDS011;2937;48.562;8.022;2022-07-11T17:46:18;5.53;;;4.27;;
5821;SDS011;2937;48.562;8.022;2022-07-11T17:51:11;6.47;;;4.30;;
5821;SDS011;2937;48.562;8.022;2022-07-11T17:56:15;5.50;;;4.90;;
5821;SDS011;2937;48.562;8.022;2022-07-11T18:01:08;6.17;;;4.23;;
5821;SDS011;2937;48.562;8.022;2022-07-11T18:06:01;5.40;;;4.80;;
5821;SDS011;2937;48.562;8.022;2022-07-11T18:10:54;6.30;;;4.67;;
5821;SDS011;2937;48.562;8.022;2022-07-11T18:15:48;4.90;;;4.40;;
5821;SDS011;2937;48.562;8.022;2022-07-11T18:20:41;6.73;;;5.57;;
5821;SDS011;2937;48.562;8.022;2022-07-11T18:25:38;9.20;;;5.17;;
5821;SDS011;2937;48.562;8.022;2022-07-11T18:30:31;6.20;;;5.30;;
5821;SDS011;2937;48.562;8.022;2022-07-11T18:35:25;5.80;;;5.00;;
5821;SDS011;2937;48.562;8.022;2022-07-11T18:40:17;7.47;;;4.97;;
5821;SDS011;2937;48.562;8.022;2022-07-11T18:45:28;8.40;;;4.87;;
5821;SDS011;2937;48.562;8.022;2022-07-11T18:50:22;8.93;;;4.90;;
5821;SDS011;2937;48.562;8.022;2022-07-11T18:55:16;8.43;;;5.50;;
5821;SDS011;2937;48.562;8.022;2022-07-11T19:00:09;7.50;;;4.70;;
5821;SDS011;2937;48.562;8.022;2022-07-11T19:05:02;7.60;;;5.67;;
5821;SDS011;2937;48.562;8.022;2022-07-11T19:09:55;8.03;;;5.40;;
5821;SDS011;2937;48.562;8.022;2022-07-11T19:14:49;6.90;;;5.30;;
5821;SDS011;2937;48.562;8.022;2022-07-11T19:19:44;18.50;;;6.00;;
5821;SDS011;2937;48.562;8.022;2022-07-11T19:24:37;8.50;;;5.10;;
5821;SDS011;2937;48.562;8.022;2022-07-11T19:29:30;7.07;;;5.40;;
5821;SDS011;2937;48.562;8.022;2022-07-11T19:34:24;6.30;;;4.93;;
5821;SDS011;2937;48.562;8.022;2022-07-11T19:39:17;8.73;;;5.60;;
5821;SDS011;2937;48.562;8.022;2022-07-11T19:44:10;7.90;;;6.00;;
5821;SDS011;2937;48.562;8.022;2022-07-11T19:49:03;9.00;;;5.53;;
5821;SDS011;2937;48.562;8.022;2022-07-11T19:53:57;7.60;;;5.50;;
5821;SDS011;2937;48.562;8.022;2022-07-11T19:58:49;13.70;;;5.90;;
5821;SDS011;2937;48.562;8.022;2022-07-11T20:03:42;8.20;;;5.87;;
5821;SDS011;2937;48.562;8.022;2022-07-11T20:08:35;9.30;;;5.90;;
5821;SDS011;2937;48.562;8.022;2022-07-11T20:13:29;6.97;;;5.80;;
5821;SDS011;2937;48.562;8.022;2022-07-11T20:18:22;7.27;;;5.83;;
5821;SDS011;2937;48.562;8.022;2022-07-11T20:23:15;7.63;;;6.20;;
5821;SDS011;2937;48.562;8.022;2022-07-11T20:28:07;7.90;;;6.00;;
5821;SDS011;2937;48.562;8.022;2022-07-11T20:33:06;7.70;;;6.10;;
5821;SDS011;2937;48.562;8.022;2022-07-11T20:37:59;7.73;;;5.57;;
5821;SDS011;2937;48.562;8.022;2022-07-11T20:42:51;7.90;;;6.10;;
5821;SDS011;2937;48.562;8.022;2022-07-11T20:47:44;6.83;;;5.77;;
5821;SDS011;2937;48.562;8.022;2022-07-11T20:52:38;9.50;;;6.30;;
5821;SDS011;2937;48.562;8.022;2022-07-11T20:57:30;8.27;;;5.83;;
5821;SDS011;2937;48.562;8.022;2022-07-11T21:02:24;7.60;;;5.80;;
5821;SDS011;2937;48.562;8.022;2022-07-11T21:07:17;7.63;;;5.53;;
5821;SDS011;2937;48.562;8.022;2022-07-11T21:12:11;7.37;;;6.33;;
5821;SDS011;2937;48.562;8.022;2022-07-11T21:17:04;7.40;;;6.20;;
5821;SDS011;2937;48.562;8.022;2022-07-11T21:21:56;7.70;;;6.47;;
5821;SDS011;2937;48.562;8.022;2022-07-11T21:26:49;8.17;;;6.53;;
5821;SDS011;2937;48.562;8.022;2022-07-11T21:31:43;9.20;;;7.00;;
5821;SDS011;2937;48.562;8.022;2022-07-11T21:36:35;9.50;;;7.20;;
5821;SDS011;2937;48.562;8.022;2022-07-11T21:41:28;10.90;;;7.70;;
5821;SDS011;2937;48.562;8.022;2022-07-11T21:46:34;8.67;;;7.00;;
5821;SDS011;2937;48.562;8.022;2022-07-11T21:51:26;9.70;;;8.00;;
5821;SDS011;2937;48.562;8.022;2022-07-11T21:56:19;10.50;;;8.20;;
5821;SDS011;2937;48.562;8.022;2022-07-11T22:01:11;11.47;;;8.17;;
5821;SDS011;2937;48.562;8.022;2022-07-11T22:06:05;9.77;;;8.30;;
5821;SDS011;2937;48.562;8.022;2022-07-11T22:10:58;9.87;;;7.50;;
5821;SDS011;2937;48.562;8.022;2022-07-11T22:15:50;12.00;;;7.60;;
5821;SDS011;2937;48.562;8.022;2022-07-11T22:20:43;11.00;;;7.53;;
5821;SDS011;2937;48.562;8.022;2022-07-11T22:25:37;8.07;;;7.27;;
5821;SDS011;2937;48.562;8.022;2022-07-11T22:30:29;8.43;;;7.60;;
5821;SDS011;2937;48.562;8.022;2022-07-11T22:35:22;10.33;;;7.90;;
5821;SDS011;2937;48.562;8.022;2022-07-11T22:40:15;8.87;;;7.50;;
5821;SDS011;2937;48.562;8.022;2022-07-11T22:45:10;9.73;;;7.90;;
5821;SDS011;2937;48.562;8.022;2022-07-11T22:50:23;9.03;;;8.03;;
5821;SDS011;2937;48.562;8.022;2022-07-11T22:55:16;8.70;;;7.57;;
5821;SDS011;2937;48.562;8.022;2022-07-11T23:00:30;9.50;;;7.87;;
5821;SDS011;2937;48.562;8.022;2022-07-11T23:05:23;9.90;;;8.27;;
5821;SDS011;2937;48.562;8.022;2022-07-11T23:10:15;9.47;;;8.40;;
5821;SDS011;2937;48.562;8.022;2022-07-11T23:15:08;11.57;;;8.90;;
5821;SDS011;2937;48.562;8.022;2022-07-11T23:20:02;9.63;;;8.63;;
5821;SDS011;2937;48.562;8.022;2022-07-11T23:24:55;11.10;;;9.17;;
5821;SDS011;2937;48.562;8.022;2022-07-11T23:29:48;11.10;;;9.00;;
5821;SDS011;2937;48.562;8.022;2022-07-11T23:34:40;12.33;;;9.60;;
5821;SDS011;2937;48.562;8.022;2022-07-11T23:39:34;11.47;;;8.83;;
5821;SDS011;2937;48.562;8.022;2022-07-11T23:44:27;10.10;;;8.23;;
5821;SDS011;2937;48.562;8.022;2022-07-11T23:49:19;10.63;;;8.80;;
5821;SDS011;2937;48.562;8.022;2022-07-11T23:54:12;11.03;;;9.87;;
5821;SDS011;2937;48.562;8.022;2022-07-11T23:59:06;12.70;;;10.30;;
